Valley Peak, Santa Cruz Island Reserve, California Weather observations

Data are for 10 minute period ending at time listed.
 Day   Time   Solar   Ave.   Ave.  Ave.  Vector  Max.   Baro.   Total    
  of    of     Rad.   Air    Rel.  Wind   Wind   Wind  Press.  Precip.   
Year   Day            Temp.  Hum.  Speed  Dir.   Gust                    
2017   (PST)  Kw/m2    F      %     mph   deg.    mph    mb.     in.     
-------------------------------------------------------------------------
 178    7:30   0.47   74.3    37    1.7    37     3.3   962.9    0.00 
 178    7:40   0.50   75.7    35    2.4    53     4.0   963.0    0.00 
 178    7:50   0.54   77.1    40    2.0    44     3.8   963.0    0.00 
 178    8:00   0.57   74.7    47    2.4    42     4.9   963.1    0.00 
 178    8:10   0.60   75.4    49    1.2    58     4.4   963.1    0.00 
 178    8:20   0.63   75.3    50    1.5    57     3.7   963.2    0.00 
 178    8:30   0.66   74.5    50    2.2    40     5.1   963.3    0.00 
 178    8:40   0.69   75.6    52    2.9   108     5.9   963.3    0.00 
 178    8:50   0.72   76.6    51    2.5   102     5.2   963.4    0.00 
 178    9:00   0.75   77.4    44    2.0   122     4.7   963.4    0.00 
 178    9:10   0.78   78.2    46    1.6   134     4.3   963.5    0.00 
 178    9:20   0.80   77.6    46    1.9   134     4.4   963.6    0.00 
 178    9:30   0.83   77.7    47    1.7    19     5.6   963.7    0.00 
 178    9:40   0.85   77.2    47    2.2   116     5.3   963.8    0.00 
 178    9:50   0.87   78.8    46    2.5   136     5.6   963.7    0.00 
 178   10:00   0.89   76.5    52    3.8   149     6.5   963.7    0.00 
 178   10:10   0.91   76.5    54    2.3   151     6.9   963.7    0.00 
 178   10:20   0.92   76.8    55    2.9   140     7.2   963.7    0.00 
 178   10:30   0.94   77.0    54    2.4   116     5.6   963.8    0.00 
 178   10:40   0.95   78.1    52    2.2    97     4.9   963.7    0.00 
 178   10:50   0.96   78.9    51    3.1    92     7.0   963.8    0.00 
 178   11:00   0.97   79.5    49    3.7   136     6.9   963.8    0.00 
 178   11:10   0.98   78.4    48    3.6   136     7.2   963.9    0.00 
 178   11:20   0.98   79.0    47    4.0   134     8.7   964.0    0.00 
 178   11:30   0.99   79.8    44    3.2   122     6.3   963.9    0.00 
 178   11:40   1.00   80.9    43    2.3   126     5.5   963.9    0.00 
 178   11:50   1.00   81.2    44    2.7   108     5.9   964.0    0.00 
 178   12:00   1.00   79.9    47    2.4   102     5.9   963.9    0.00 
 178   12:10   0.99   79.1    44    3.1    55     5.9   963.9    0.00 
 178   12:20   0.99   78.6    44    2.9    59     4.9   963.9    0.00 
 178   12:30   0.99   77.8    45    4.3    43     6.7   963.8    0.00 
 178   12:40   0.99   77.4    45    5.5    44     8.6   963.7    0.00 
 178   12:50   0.98   76.7    47    5.0    37     7.9   963.6    0.00 
 178   13:00   0.98   76.0    48    6.2    40     9.3   963.6    0.00 
 178   13:10   0.97   75.8    49    5.0    42     8.7   963.6    0.00 
 178   13:20   0.96   76.3    48    3.8    37     5.8   963.5    0.00 
 178   13:30   0.95   78.5    46    3.6    37     5.8   963.5    0.00 
 178   13:40   0.94   77.3    47    4.2    26     6.7   963.4    0.00 
 178   13:50   0.92   78.2    46    2.5    40     4.8   963.3    0.00 
 178   14:00   0.91   79.2    45    2.3    26     5.1   963.2    0.00 
 178   14:10   0.89   81.0    44    1.9    25     6.2   963.2    0.00 
 178   14:20   0.87   84.5    40    2.1    86     4.5   963.2    0.00 
 178   14:30   0.85   84.9    39    2.1   159     5.3   963.1    0.00 
 178   14:40   0.83   83.4    40    2.6   194     5.3   963.1    0.00 
 178   14:50   0.80   84.4    39    1.7   157     6.1   963.0    0.00 
 178   15:00   0.78   84.1    40    2.8   191     6.0   962.9    0.00 
 178   15:10   0.75   82.8    41    3.7   213     9.0   962.7    0.00 
 178   15:20   0.72   82.6    41    3.7   217     7.6   962.6    0.00 
 178   15:30   0.69   82.7    39    4.5   205     8.9   962.5    0.00 
 178   15:40   0.67   81.0    41    5.0   214     7.9   962.5    0.00 
 178   15:50   0.63   79.0    42    5.0   220    10.8   962.4    0.00 
 178   16:00   0.60   79.7    40    4.5   232     8.6   962.4    0.00 
 178   16:10   0.57   79.5    40    4.2   239     6.9   962.4    0.00 
 178   16:20   0.54   79.8    40    3.0   240     5.3   962.2    0.00 
 178   16:30   0.51   81.2    38    3.0   228     7.1   962.2    0.00 
 178   16:40   0.47   81.8    39    1.8   227     4.8   962.1    0.00 
 178   16:50   0.44   83.0    40    1.1    65     2.5   962.1    0.00 
 178   17:00   0.40   82.6    41    1.2    27     2.6   961.9    0.00 
 178   17:10   0.37   81.2    42    1.1     9     3.1   961.9    0.00 
 178   17:20   0.33   79.8    43    1.3   266     3.8   961.9    0.00 
 178   17:30   0.30   76.7    45    1.8   244     3.7   961.9    0.00 
 178   17:40   0.26   75.8    46    2.6   286     4.2   961.9    0.00 
 178   17:50   0.23   73.8    48    3.5   302     5.8   961.8    0.00 
 178   18:00   0.20   71.9    48    3.8   293     5.7   961.7    0.00 
 178   18:10   0.16   73.5    47    1.0   323     2.8   961.6    0.00 
 178   18:20   0.13   78.3    41    3.1   102     4.5   961.5    0.00 
 178   18:30   0.10   81.5    37    4.0    66     5.8   961.5    0.00 
 178   18:40   0.08   78.8    42    5.2    35     7.3   961.4    0.00 
 178   18:50   0.05   73.1    49    7.5    25     9.3   961.3    0.00 
 178   19:00   0.02   69.4    56    8.2    30     9.7   961.3    0.00 
 178   19:10   0.00   66.5    56    6.7    30     8.5   961.1    0.00 
 178   19:20   0.00   64.7    58    6.5    34     8.0   960.9    0.00 
 178   19:30   0.00   64.0    58    4.4    49     8.3   960.9    0.00 
 178   19:40   0.00   64.0    54    4.2    49     7.1   960.9    0.00 
 178   19:50   0.00   63.3    55    5.3    43     8.2   960.9    0.00 
 178   20:00   0.00   63.0    55    6.9    19     9.9   960.9    0.00 
 178   20:10   0.00   63.4    53    9.2    13    12.0   960.9    0.00 
 178   20:20   0.00   63.0    54   10.2     6    13.0   960.9    0.00 
 178   20:30   0.00   63.9    52   12.8   357    18.3   960.9    0.00 
 178   20:40   0.00   62.9    56   12.8     3    17.1   961.0    0.00 
 178   20:50   0.00   61.2    63   10.6    18    13.7   961.1    0.00 
 178   21:00   0.00   61.9    57    9.6   347    16.7   961.1    0.00 
 178   21:10   0.00   66.4    42   11.7   326    17.9   961.3    0.00 
 178   21:20   0.00   67.1    43   11.7   330    16.0   961.4    0.00 
 178   21:30   0.00   65.5    48   11.1   343    14.8   961.3    0.00 
 178   21:40   0.00   65.5    48    9.7   356    13.7   961.4    0.00 
 178   21:50   0.00   65.5    48    9.2   354    14.5   961.5    0.00 
 178   22:00   0.00   65.3    49    8.6   345    12.5   961.5    0.00 
 178   22:10   0.00   67.1    44   11.1   340    13.0   961.5    0.00 
 178   22:20   0.00   68.3    41   11.6   342    13.3   961.5    0.00 
 178   22:30   0.00   68.7    40    9.5   344    10.7   961.5    0.00 
 178   22:40   0.00   68.9    39    8.0   350     9.9   961.6    0.00 
 178   22:50   0.00   67.1    45    7.1     1     9.3   961.5    0.00 
 178   23:00   0.00   65.3    49    7.6   354     9.3   961.5    0.00 
 178   23:10   0.00   66.9    43    9.3   346    11.1   961.4    0.00 
 178   23:20   0.00   67.2    44    8.2   335    10.0   961.4    0.00 
 178   23:30   0.00   61.3    62    6.5   341     8.0   961.4    0.00 
 178   23:40   0.00   59.8    66    6.8   342    11.2   961.3    0.00 
 178   23:50   0.00   61.4    60    6.1   357     8.6   961.4    0.00 
 179    0:00   0.00   62.7    54    3.9   310     7.5   961.5    0.00 
 179    0:10   0.00   63.0    53    3.8   200     5.8   961.5    0.00 
 179    0:20   0.00   62.4    56    4.2   219     6.0   961.4    0.00 
 179    0:30   0.00   62.3    58    3.6   182     5.1   961.4    0.00 
 179    0:40   0.00   60.5    62    4.0   181     5.0   961.4    0.00 
 179    0:50   0.00   59.1    66    3.5   199     4.5   961.4    0.00 
 179    1:00   0.00   61.8    53    3.0   163     4.1   961.2    0.00 
 179    1:10   0.00   64.0    51    2.9   334     4.7   961.1    0.00 
 179    1:20   0.00   63.4    52    4.1   345     8.4   961.0    0.00 
 179    1:30   0.00   60.9    60    5.2     4     7.9   960.9    0.00 
 179    1:40   0.00   58.9    66    7.7     4    11.2   960.8    0.00 
 179    1:50   0.00   59.6    64    8.7   342    10.9   960.9    0.00 
 179    2:00   0.00   60.7    62    7.9   341     9.9   961.0    0.00 
 179    2:10   0.00   60.6    63    8.8   352    12.1   961.1    0.00 
 179    2:20   0.00   58.0    72   10.9    17    12.9   961.1    0.00 
 179    2:30   0.00   56.7    76   11.2    23    13.1   961.1    0.00 
 179    2:40   0.00   55.9    80   10.7    26    12.5   961.1    0.00 
 179    2:50   0.00   55.4    84    8.5    35    12.7   961.2    0.00 
 179    3:00   0.00   55.2    84    5.1    22     8.5   961.3    0.00 
 179    3:10   0.00   57.2    76    3.3   312     7.2   961.3    0.00 
 179    3:20   0.00   58.1    73    1.9   250     3.5   961.3    0.00 
 179    3:30   0.00   58.1    77    3.9   194     5.5   961.3    0.00 
 179    3:40   0.00   57.2    78    4.8   198     6.3   961.3    0.00 
 179    3:50   0.00   57.4    78    3.8   200     5.4   961.3    0.00 
 179    4:00   0.00   57.9    74    2.6   234     3.9   961.3    0.00 
 179    4:10   0.00   59.1    68    2.6   254     3.9   961.3    0.00 
 179    4:20   0.00   60.0    65    1.6   158     2.7   961.4    0.00 
 179    4:30   0.00   59.7    68    2.7   146     4.7   961.5    0.00 
 179    4:40   0.00   59.6    67    3.5   144     6.9   961.6    0.00 
 179    4:50   0.00   59.9    67    3.4   142     6.1   961.7    0.00 
 179    5:00   0.00   58.8    81    4.8   146     6.6   961.8    0.00 
 179    5:10   0.01   56.8    89    4.9   160     6.4   961.9    0.00 
 179    5:20   0.04   57.4    83    5.2   153     7.4   961.9    0.00 
 179    5:30   0.07   57.3    84    4.7   143     7.0   961.9    0.00 
 179    5:40   0.09   58.6    75    4.1   135     5.8   962.0    0.00 
 179    5:50   0.12   59.2    74    5.9   130     8.1   962.0    0.00 
 179    6:00   0.15   59.1    77    6.8   132     8.3   962.1    0.00 
 179    6:10   0.18   58.9    80    6.6   130     7.7   962.2    0.00 
 179    6:20   0.21   59.4    82    7.3   132     8.4   962.3    0.00 
 179    6:30   0.24   59.6    85    6.1   140     8.0   962.3    0.00 
 179    6:40   0.28   59.3    88    5.8   144     8.3   962.4    0.00 
 179    6:50   0.31   59.5    88    6.1   142     8.5   962.5    0.00 
 179    7:00   0.34   59.8    88    5.4   146     7.9   962.6    0.00 
 179    7:10   0.35   60.4    89    5.4   148     8.6   962.6    0.00 
 179    7:20   0.34   60.4    91    6.4   155     9.6   962.7    0.00 

Return to Valley Peak, Santa Cruz Island Reserve graphs page.


Western Regional Climate Center,wrcc@dri.edu